Time;durP1;ratioP1;P1;durP2;ratioP2;P2;SDS_P1;SDS_P2;PMS_P1;PMS_P2;Temp;Humidity;BMP_temperature;BMP_pressure;BME280_temperature;BME280_humidity;BME280_pressure;Samples;Min_cycle;Max_cycle;Signal;HPM_P1;HPM_P2
2022/11/10 00:00:34;;;;;;;12.60;2.60;;;;;;;14.81;100.00;97786.53;6085400;23;20006;-92
2022/11/10 00:03:01;;;;;;;13.27;2.50;;;;;;;14.98;100.00;97805.03;6059229;23;20026;-92
2022/11/10 00:05:27;;;;;;;12.82;2.28;;;;;;;15.06;100.00;97803.84;6058030;23;20133;-91
2022/11/10 00:07:52;;;;;;;14.30;1.90;;;;;;;14.96;100.00;97804.25;6059668;23;20720;-92
2022/11/10 00:10:18;;;;;;;14.57;2.47;;;;;;;14.71;100.00;97822.81;6085298;23;20291;-92
2022/11/10 00:12:43;;;;;;;11.77;2.20;;;;;;;15.13;100.00;97816.66;6082935;23;20329;-90
2022/11/10 00:17:54;;;;;;;13.85;2.00;;;;;;;14.88;100.00;97818.59;6086365;23;20466;-89
2022/11/10 00:20:23;;;;;;;12.98;2.22;;;;;;;15.08;100.00;97823.88;6060409;23;20042;-91
2022/11/10 00:22:48;;;;;;;14.65;2.40;;;;;;;15.26;100.00;97824.88;6059895;23;20767;-90
2022/11/10 00:25:13;;;;;;;9.93;1.80;;;;;;;15.12;100.00;97837.75;6085486;23;20053;-90
2022/11/10 00:27:39;;;;;;;17.50;1.95;;;;;;;15.28;100.00;97830.91;6060630;23;20006;-91
2022/11/10 00:30:05;;;;;;;9.30;1.80;;;;;;;15.02;100.00;97832.03;6061612;23;20007;-91
2022/11/10 00:32:31;;;;;;;10.75;1.50;;;;;;;15.50;100.00;97819.47;6061160;23;20021;-91
2022/11/10 00:34:56;;;;;;;10.93;1.67;;;;;;;14.95;100.00;97836.66;6060476;23;20010;-90
2022/11/10 00:37:22;;;;;;;10.07;1.67;;;;;;;15.51;100.00;97829.06;6060672;23;20432;-91
2022/11/10 00:39:47;;;;;;;12.95;1.98;;;;;;;15.46;100.00;97831.91;6061658;23;20146;-91
2022/11/10 00:42:13;;;;;;;9.30;1.60;;;;;;;15.57;100.00;97852.44;6060250;23;20022;-90
2022/11/10 00:44:38;;;;;;;10.20;1.60;;;;;;;15.23;100.00;97846.00;6060587;23;20014;-90
2022/11/10 00:47:04;;;;;;;13.02;2.03;;;;;;;14.94;100.00;97852.50;6085893;23;20006;-90
2022/11/10 00:49:29;;;;;;;13.15;1.70;;;;;;;14.79;100.00;97862.69;6085742;23;20349;-90
2022/11/10 00:51:54;;;;;;;10.38;1.70;;;;;;;15.56;100.00;97869.13;6060037;23;20041;-91
2022/11/10 00:54:22;;;;;;;9.23;1.83;;;;;;;15.83;100.00;97867.06;6083722;23;20003;-89
2022/11/10 00:56:48;;;;;;;14.00;2.05;;;;;;;15.70;100.00;97860.66;6059883;23;20021;-90
2022/11/10 00:59:13;;;;;;;9.38;2.17;;;;;;;15.25;100.00;97867.81;6086968;23;20344;-90
2022/11/10 01:01:38;;;;;;;9.95;2.22;;;;;;;15.45;100.00;97879.22;6060820;23;20044;-90
2022/11/10 01:04:04;;;;;;;14.32;1.75;;;;;;;15.77;100.00;97880.47;6087537;23;20014;-90
2022/11/10 01:06:29;;;;;;;10.75;2.10;;;;;;;16.20;100.00;97875.09;6060796;23;20397;-90
2022/11/10 01:08:55;;;;;;;10.93;1.75;;;;;;;15.36;100.00;97898.88;6087138;23;20524;-90
2022/11/10 01:11:23;;;;;;;11.77;1.80;;;;;;;15.84;100.00;97894.25;6061365;23;20130;-90
2022/11/10 01:13:51;;;;;;;8.93;1.42;;;;;;;16.07;100.00;97889.72;6061835;23;20017;-90
2022/11/10 01:16:28;;;;;;;9.38;1.80;;;;;;;16.30;100.00;97893.94;6087389;23;20478;-91
2022/11/10 01:18:56;;;;;;;12.70;2.00;;;;;;;15.82;100.00;97898.69;6060831;23;20014;-89
2022/11/10 01:21:22;;;;;;;15.57;2.13;;;;;;;15.70;100.00;97892.19;6061770;23;20014;-89
2022/11/10 01:23:48;;;;;;;12.93;2.47;;;;;;;16.40;100.00;97881.22;6063075;23;20058;-90
2022/11/10 01:26:14;;;;;;;15.70;2.05;;;;;;;16.18;100.00;97890.09;6063926;23;20022;-90
2022/11/10 01:28:40;;;;;;;9.82;1.90;;;;;;;15.57;100.00;97886.59;6062229;23;20010;-89
2022/11/10 01:31:18;;;;;;;8.55;1.65;;;;;;;16.31;100.00;97885.09;6089588;23;20121;-89
2022/11/10 01:33:44;;;;;;;10.38;2.20;;;;;;;16.19;100.00;97876.00;6087704;23;20100;-90
2022/11/10 01:36:11;;;;;;;11.60;1.98;;;;;;;15.93;100.00;97872.78;6061168;23;20038;-90
2022/11/10 01:38:38;;;;;;;11.30;1.98;;;;;;;16.35;100.00;97874.38;6060905;23;20535;-90
2022/11/10 01:41:06;;;;;;;12.57;1.98;;;;;;;16.29;100.00;97885.19;6061326;23;20030;-91
2022/11/10 01:43:32;;;;;;;13.50;2.00;;;;;;;15.76;100.00;97867.41;6087505;23;20052;-91
2022/11/10 01:46:00;;;;;;;13.05;2.30;;;;;;;16.58;100.00;97864.53;6087608;23;20416;-90
2022/11/10 01:48:31;;;;;;;17.23;2.35;;;;;;;16.03;100.00;97862.69;6061698;23;20018;-91
2022/11/10 01:51:00;;;;;;;8.90;1.80;;;;;;;16.62;100.00;97854.69;6061532;23;20025;-92
2022/11/10 01:53:30;;;;;;;14.23;2.42;;;;;;;16.64;100.00;97851.06;6086979;23;20373;-91
2022/11/10 01:55:57;;;;;;;10.95;2.15;;;;;;;15.87;100.00;97859.91;6061752;23;20381;-91
2022/11/10 01:58:28;;;;;;;10.63;1.70;;;;;;;16.08;100.00;97871.25;6060887;23;20085;-90
2022/11/10 02:00:53;;;;;;;12.35;1.92;;;;;;;15.87;100.00;97875.69;6087381;23;20444;-90
2022/11/10 02:03:35;;;;;;;10.43;1.90;;;;;;;16.00;100.00;97863.69;6061189;23;20149;-90
2022/11/10 02:06:01;;;;;;;13.88;2.17;;;;;;;16.11;100.00;97871.09;6086947;23;20026;-91
2022/11/10 02:08:27;;;;;;;11.07;2.00;;;;;;;15.60;100.00;97886.47;6062972;23;20014;-91
2022/11/10 02:10:52;;;;;;;10.57;1.90;;;;;;;15.84;100.00;97876.69;6061588;23;20029;-90
2022/11/10 02:13:18;;;;;;;10.88;2.00;;;;;;;15.79;100.00;97883.03;6062789;23;20010;-91
2022/11/10 02:15:44;;;;;;;11.27;2.17;;;;;;;16.05;100.00;97887.16;6061465;23;20061;-90
2022/11/10 02:18:09;;;;;;;9.52;1.42;;;;;;;16.36;100.00;97878.69;6060116;23;20203;-90
2022/11/10 02:20:34;;;;;;;11.73;2.03;;;;;;;15.89;100.00;97876.47;6086920;23;20074;-90
2022/11/10 02:23:10;;;;;;;11.95;2.13;;;;;;;16.05;100.00;97860.88;6085880;23;20003;-91
2022/11/10 02:25:36;;;;;;;10.73;1.83;;;;;;;15.98;100.00;97860.28;6061586;23;20018;-90
2022/11/10 02:28:01;;;;;;;9.07;1.77;;;;;;;16.08;100.00;97863.34;6060809;23;20037;-90
2022/11/10 02:30:27;;;;;;;10.13;1.60;;;;;;;15.58;100.00;97866.44;6060728;23;20014;-91
2022/11/10 02:32:52;;;;;;;9.63;1.60;;;;;;;16.21;100.00;97855.72;6061028;23;20045;-90
2022/11/10 02:35:18;;;;;;;9.05;2.00;;;;;;;15.77;100.00;97851.56;6060816;23;20018;-90
2022/11/10 02:37:43;;;;;;;12.13;1.67;;;;;;;15.96;100.00;97848.13;6084648;23;20021;-90
2022/11/10 02:40:09;;;;;;;6.72;1.50;;;;;;;15.99;100.00;97850.59;6062244;23;20433;-90
2022/11/10 02:42:34;;;;;;;8.85;1.90;;;;;;;15.69;100.00;97859.78;6061017;23;20029;-90
2022/11/10 02:45:00;;;;;;;14.73;1.83;;;;;;;16.05;100.00;97871.38;6061406;23;20049;-90
2022/11/10 02:47:25;;;;;;;10.10;1.85;;;;;;;15.78;100.00;97883.94;6059131;23;20010;-90
2022/11/10 02:49:53;;;;;;;9.02;1.95;;;;;;;15.93;100.00;97892.97;6061510;23;20018;-90
2022/11/10 02:52:19;;;;;;;10.05;1.70;;;;;;;16.07;100.00;97884.47;6061328;23;20014;-89
2022/11/10 02:54:44;;;;;;;9.98;1.55;;;;;;;16.02;100.00;97893.41;6086372;23;20740;-91
2022/11/10 02:57:09;;;;;;;8.50;1.73;;;;;;;16.20;100.00;97896.97;6061211;23;20336;-91
2022/11/10 02:59:35;;;;;;;8.10;1.52;;;;;;;15.79;100.00;97914.59;6082542;23;20006;-91
2022/11/10 03:02:00;;;;;;;11.07;1.58;;;;;;;16.44;100.00;97907.31;6046085;23;20100;-91
2022/11/10 03:04:25;;;;;;;8.77;1.63;;;;;;;16.52;100.00;97907.78;6050158;23;20022;-90
2022/11/10 03:06:51;;;;;;;8.48;1.55;;;;;;;16.40;100.00;97915.41;6058407;23;20046;-91
2022/11/10 03:09:17;;;;;;;7.72;1.50;;;;;;;16.32;100.00;97939.44;6059679;23;20010;-92
2022/11/10 03:11:42;;;;;;;7.95;1.30;;;;;;;16.32;100.00;97940.28;6082884;23;20026;-92
2022/11/10 03:14:07;;;;;;;8.18;1.80;;;;;;;16.51;100.00;97928.94;6058709;23;20503;-92
2022/11/10 03:16:33;;;;;;;6.03;1.17;;;;;;;16.40;100.00;97918.03;6082363;23;20017;-91
2022/11/10 03:18:58;;;;;;;6.25;1.27;;;;;;;16.55;100.00;97919.97;6055817;23;20006;-91
2022/11/10 03:21:23;;;;;;;7.03;1.35;;;;;;;16.45;100.00;97924.81;6058628;23;20014;-93
2022/11/10 03:23:49;;;;;;;6.63;1.33;;;;;;;16.62;100.00;97909.97;6057010;23;20057;-91
2022/11/10 03:26:14;;;;;;;5.55;1.23;;;;;;;16.06;100.00;97919.56;6060025;23;20022;-92
2022/11/10 03:28:39;;;;;;;5.72;1.27;;;;;;;16.63;100.00;97914.31;6081026;23;20011;-91
2022/11/10 03:31:05;;;;;;;7.70;1.40;;;;;;;16.54;100.00;97926.16;6059127;23;20062;-91
2022/11/10 03:33:30;;;;;;;7.28;1.50;;;;;;;16.69;100.00;97920.16;6059671;23;20340;-92
2022/11/10 03:35:56;;;;;;;10.30;1.27;;;;;;;16.57;100.00;97920.72;6058861;23;20010;-91
2022/11/10 03:38:24;;;;;;;4.93;0.98;;;;;;;16.27;100.00;97933.53;6059404;23;20019;-91
2022/11/10 03:40:49;;;;;;;8.20;1.10;;;;;;;17.20;100.00;97919.50;6083830;23;20003;-91
2022/11/10 03:43:15;;;;;;;6.47;1.30;;;;;;;16.78;100.00;97913.59;6082903;23;20023;-91
2022/11/10 03:45:43;;;;;;;5.93;1.20;;;;;;;17.01;100.00;97909.03;6082385;23;20249;-91
2022/11/10 03:48:08;;;;;;;5.20;1.25;;;;;;;16.75;100.00;97919.00;6058862;23;20011;-91
2022/11/10 03:50:34;;;;;;;5.68;1.58;;;;;;;16.67;100.00;97905.34;6058794;23;20078;-90
2022/11/10 03:52:59;;;;;;;5.95;1.05;;;;;;;16.94;100.00;97889.16;6058982;23;20721;-92
2022/11/10 03:55:24;;;;;;;5.28;1.20;;;;;;;16.74;100.00;97883.06;6059559;23;20015;-91
2022/11/10 03:57:50;;;;;;;7.55;1.15;;;;;;;16.91;100.00;97887.56;6059486;23;20014;-91
2022/11/10 04:00:15;;;;;;;8.27;1.70;;;;;;;16.85;100.00;97911.53;6058544;23;20007;-91
2022/11/10 04:02:41;;;;;;;6.88;1.00;;;;;;;17.12;100.00;97901.47;6057436;23;20019;-91
2022/11/10 04:10:45;;;;;;;6.22;1.00;;;;;;;16.65;100.00;97899.31;6058345;23;20026;-92
2022/11/10 04:15:58;;;;;;;4.88;0.85;;;;;;;16.77;100.00;97898.75;6058596;23;20083;-91
2022/11/10 04:18:23;;;;;;;5.88;0.85;;;;;;;17.20;100.00;97914.25;6079498;23;20023;-91
2022/11/10 04:20:54;;;;;;;6.45;0.82;;;;;;;17.03;100.00;97909.81;6055638;23;20041;-91
2022/11/10 04:23:35;;;;;;;7.03;0.80;;;;;;;16.70;100.00;97913.97;6055043;23;20030;-90
2022/11/10 04:28:55;;;;;;;3.10;0.68;;;;;;;17.04;100.00;97903.63;6057552;23;20057;-92
2022/11/10 04:31:22;;;;;;;2.80;0.73;;;;;;;17.20;100.00;97893.16;6055673;23;20013;-91
2022/11/10 04:33:49;;;;;;;3.03;0.57;;;;;;;17.26;100.00;97890.22;6058515;23;20003;-91
2022/11/10 04:36:18;;;;;;;3.60;0.85;;;;;;;17.05;100.00;97894.78;6059798;23;20042;-92
2022/11/10 04:38:44;;;;;;;6.45;1.00;;;;;;;16.88;100.00;97907.00;6058189;23;20097;-92
2022/11/10 04:41:10;;;;;;;5.72;1.00;;;;;;;16.99;100.00;97897.72;6058398;23;20069;-92
2022/11/10 04:43:36;;;;;;;6.28;0.80;;;;;;;16.66;100.00;97891.34;6060254;23;20386;-92
2022/11/10 04:46:05;;;;;;;9.93;1.70;;;;;;;16.80;100.00;97888.06;6058612;23;20018;-91
2022/11/10 04:48:32;;;;;;;5.35;0.82;;;;;;;17.02;100.00;97900.19;6057510;23;20018;-91
2022/11/10 04:51:03;;;;;;;6.45;1.00;;;;;;;16.69;100.00;97907.00;6057634;23;20121;-93
2022/11/10 04:53:28;;;;;;;3.65;0.90;;;;;;;17.34;100.00;97900.38;6057039;23;20018;-92
2022/11/10 04:55:54;;;;;;;5.30;0.93;;;;;;;16.70;100.00;97911.34;6081757;23;20015;-91
2022/11/10 04:58:19;;;;;;;4.85;1.20;;;;;;;17.25;100.00;97900.84;6060559;23;20035;-92
2022/11/10 05:00:44;;;;;;;3.65;0.70;;;;;;;16.89;100.00;97906.06;6060477;23;20011;-93
2022/11/10 05:03:12;;;;;;;3.75;0.85;;;;;;;16.90;100.00;97909.56;6079732;23;20745;-91
2022/11/10 05:05:37;;;;;;;4.45;0.80;;;;;;;17.13;100.00;97918.13;6059063;23;20015;-91
2022/11/10 05:08:03;;;;;;;6.30;1.00;;;;;;;16.98;100.00;97924.97;6059219;23;20007;-92
2022/11/10 05:10:29;;;;;;;4.65;0.93;;;;;;;17.58;100.00;97914.09;6057686;23;20007;-91
2022/11/10 05:12:56;;;;;;;3.03;0.80;;;;;;;17.08;100.00;97941.19;6059311;23;20109;-92
2022/11/10 05:15:22;;;;;;;7.15;1.05;;;;;;;16.64;100.00;97940.56;6059456;23;20086;-91
2022/11/10 05:17:52;;;;;;;4.78;1.10;;;;;;;16.90;100.00;97941.16;6058627;23;20097;-92
2022/11/10 05:20:20;;;;;;;5.60;1.00;;;;;;;16.89;100.00;97949.97;6058932;23;20023;-92
2022/11/10 05:23:36;;;;;;;4.85;1.02;;;;;;;17.08;100.00;97968.41;6077389;23;20011;-92
2022/11/10 05:25:34;;;;;;;4.15;1.00;;;;;;;16.56;100.00;97958.50;6052140;23;20029;-91
2022/11/10 05:27:59;;;;;;;6.70;1.38;;;;;;;17.23;100.00;97965.03;6057722;23;20011;-92
2022/11/10 05:30:25;;;;;;;6.13;1.10;;;;;;;17.57;100.00;97957.22;6057615;23;20445;-92
2022/11/10 05:32:50;;;;;;;6.95;0.98;;;;;;;17.54;100.00;97957.38;6057703;23;20002;-92
2022/11/10 05:35:15;;;;;;;6.25;1.10;;;;;;;17.42;100.00;97971.16;6057450;23;20010;-92
2022/11/10 05:37:41;;;;;;;6.25;1.30;;;;;;;17.14;100.00;97961.97;6059780;23;20034;-91
2022/11/10 05:40:07;;;;;;;11.18;1.30;;;;;;;17.20;100.00;97965.19;6058900;23;20162;-91
2022/11/10 05:42:32;;;;;;;6.07;1.30;;;;;;;16.85;100.00;97993.16;6058045;23;20015;-92
2022/11/10 05:44:57;;;;;;;5.53;1.02;;;;;;;16.98;100.00;97985.56;6055337;23;20010;-90
2022/11/10 05:47:24;;;;;;;5.47;1.15;;;;;;;16.91;100.00;97976.25;6086003;23;20101;-91
2022/11/10 05:49:49;;;;;;;5.07;1.13;;;;;;;16.36;100.00;98006.78;6086312;23;20029;-91
2022/11/10 05:52:15;;;;;;;6.60;1.23;;;;;;;17.06;100.00;98009.75;6059068;23;20706;-91
2022/11/10 05:54:49;;;;;;;7.95;1.33;;;;;;;16.64;100.00;98000.28;6060615;23;20022;-91
2022/11/10 05:57:15;;;;;;;4.80;1.30;;;;;;;16.46;100.00;97984.38;6063041;23;20397;-92
2022/11/10 05:59:40;;;;;;;7.40;1.25;;;;;;;16.80;100.00;97960.91;6061358;23;20023;-92
2022/11/10 06:02:05;;;;;;;5.68;1.10;;;;;;;16.64;100.00;97980.06;6062126;23;20010;-90
2022/11/10 06:04:31;;;;;;;6.55;1.30;;;;;;;17.17;100.00;97967.09;6062292;23;20049;-92
2022/11/10 06:06:56;;;;;;;9.73;1.17;;;;;;;17.14;100.00;97961.97;6062496;23;20035;-91
2022/11/10 06:09:22;;;;;;;6.30;1.20;;;;;;;16.99;100.00;97974.97;6085948;23;21063;-91
2022/11/10 06:11:47;;;;;;;6.63;2.03;;;;;;;16.55;100.00;97970.81;6062192;23;20029;-92
2022/11/10 06:14:12;;;;;;;5.65;0.98;;;;;;;16.69;100.00;97966.72;6086708;23;20021;-92
2022/11/10 06:16:38;;;;;;;6.82;1.20;;;;;;;16.85;100.00;97974.72;6086949;23;20093;-91
2022/11/10 06:19:03;;;;;;;5.07;0.88;;;;;;;16.94;100.00;97969.06;6088347;23;20572;-91
2022/11/10 06:21:28;;;;;;;5.10;1.17;;;;;;;16.99;100.00;97976.72;6087804;23;20040;-92
2022/11/10 06:23:54;;;;;;;7.00;1.48;;;;;;;17.04;100.00;97967.69;6087837;23;19998;-91
2022/11/10 06:26:20;;;;;;;4.07;0.80;;;;;;;16.99;100.00;97967.06;6089376;23;20014;-93
2022/11/10 06:28:45;;;;;;;9.45;1.10;;;;;;;17.23;100.00;97967.66;6064752;23;20018;-93
2022/11/10 06:31:11;;;;;;;11.75;1.50;;;;;;;16.78;100.00;97968.88;6065707;23;20013;-92
2022/11/10 06:33:36;;;;;;;5.45;1.23;;;;;;;17.08;100.00;97967.53;6063792;23;20002;-92
2022/11/10 06:36:02;;;;;;;7.75;1.23;;;;;;;17.13;100.00;97974.31;6088811;23;20018;-91
2022/11/10 06:38:27;;;;;;;7.10;1.27;;;;;;;16.66;100.00;97974.72;6062252;23;20006;-91
2022/11/10 06:40:52;;;;;;;8.60;1.30;;;;;;;16.53;100.00;98027.09;6062416;23;20344;-93
2022/11/10 06:43:18;;;;;;;5.30;1.17;;;;;;;16.67;100.00;97969.41;6061704;23;20065;-93
2022/11/10 06:45:43;;;;;;;6.53;1.10;;;;;;;16.81;100.00;97981.06;6087148;23;20083;-91
2022/11/10 06:48:12;;;;;;;10.30;1.10;;;;;;;16.60;100.00;97983.75;6063809;23;20010;-93
2022/11/10 06:50:37;;;;;;;7.45;1.23;;;;;;;16.94;100.00;97982.22;6064599;23;20073;-93
2022/11/10 06:53:03;;;;;;;90.80;5.43;;;;;;;16.73;100.00;97987.53;6089212;23;20002;-91
2022/11/10 06:55:29;;;;;;;11.80;1.50;;;;;;;16.67;100.00;97979.06;6087039;23;20143;-92
2022/11/10 06:57:54;;;;;;;6.32;1.00;;;;;;;16.95;100.00;97998.88;6085279;23;20013;-94
2022/11/10 07:00:21;;;;;;;6.30;1.02;;;;;;;16.96;100.00;97988.25;6060481;23;20018;-91
2022/11/10 07:02:46;;;;;;;7.68;1.10;;;;;;;16.83;100.00;97987.97;6058720;23;20026;-92
2022/11/10 07:05:14;;;;;;;9.77;1.30;;;;;;;17.03;100.00;97994.94;6087273;23;20038;-92
2022/11/10 07:07:40;;;;;;;6.43;1.10;;;;;;;17.65;100.00;97989.31;6081709;23;20022;-90
2022/11/10 07:10:05;;;;;;;8.77;1.05;;;;;;;17.53;100.00;97982.88;6057570;23;20015;-90
2022/11/10 07:12:31;;;;;;;4.55;1.00;;;;;;;16.73;100.00;97994.59;6060181;23;20007;-91
2022/11/10 07:14:56;;;;;;;7.63;1.25;;;;;;;17.08;100.00;97986.84;6087020;23;20412;-92
2022/11/10 07:17:22;;;;;;;9.30;1.38;;;;;;;17.40;100.00;97981.78;6064532;23;20022;-93
2022/11/10 07:19:47;;;;;;;8.50;1.05;;;;;;;16.95;100.00;97981.31;6065548;23;20395;-93
2022/11/10 07:22:12;;;;;;;5.20;1.20;;;;;;;16.77;100.00;97982.13;6089124;23;20014;-92
2022/11/10 07:24:38;;;;;;;7.32;1.00;;;;;;;16.81;100.00;97986.31;6061888;23;20014;-92
2022/11/10 07:27:03;;;;;;;5.78;1.00;;;;;;;16.81;100.00;97979.31;6060921;23;20017;-92
2022/11/10 07:29:29;;;;;;;5.13;1.20;;;;;;;16.65;100.00;97984.41;6058778;23;20046;-94
2022/11/10 07:31:55;;;;;;;5.07;0.85;;;;;;;16.84;100.00;97983.53;6085127;23;20471;-93
2022/11/10 07:34:20;;;;;;;6.95;1.00;;;;;;;16.77;100.00;97996.16;6061223;23;19998;-93
2022/11/10 07:36:45;;;;;;;5.35;0.95;;;;;;;17.18;100.00;97997.78;6084508;23;20093;-93
2022/11/10 07:39:12;;;;;;;6.38;1.20;;;;;;;17.30;100.00;97998.97;6059454;23;20080;-92
2022/11/10 07:41:38;;;;;;;5.47;1.00;;;;;;;17.20;100.00;97994.16;6085773;23;20022;-92
2022/11/10 07:44:03;;;;;;;6.40;1.13;;;;;;;17.12;100.00;98019.16;6088391;23;20026;-92
2022/11/10 07:46:29;;;;;;;6.68;1.20;;;;;;;16.99;100.00;98011.84;6089465;23;20432;-94
2022/11/10 07:48:54;;;;;;;6.10;1.10;;;;;;;17.62;100.00;98034.31;6059609;23;20036;-92
2022/11/10 07:51:19;;;;;;;5.40;0.90;;;;;;;17.91;100.00;98032.00;6054284;23;20010;-91
2022/11/10 07:53:45;;;;;;;4.13;1.00;;;;;;;17.43;100.00;98036.97;6056055;23;20016;-91
2022/11/10 07:56:10;;;;;;;6.68;1.17;;;;;;;17.75;100.00;98051.22;6057824;23;20476;-91
2022/11/10 07:58:36;;;;;;;7.25;1.30;;;;;;;17.33;100.00;98056.81;6058989;23;20093;-91
2022/11/10 08:01:01;;;;;;;7.88;1.00;;;;;;;17.39;100.00;98053.88;6057449;23;20081;-91
2022/11/10 08:03:27;;;;;;;7.22;1.33;;;;;;;17.22;100.00;98060.81;6082621;23;20030;-91
2022/11/10 08:05:52;;;;;;;6.10;1.15;;;;;;;17.22;100.00;98078.41;6083292;23;20831;-90
2022/11/10 08:08:18;;;;;;;5.75;1.10;;;;;;;17.19;100.00;98065.38;6082560;23;20578;-89
2022/11/10 08:10:44;;;;;;;9.23;1.15;;;;;;;17.41;100.00;98062.53;6080994;23;20018;-91
2022/11/10 08:13:12;;;;;;;4.68;1.00;;;;;;;17.33;100.00;98072.63;6082769;23;20038;-91
2022/11/10 08:15:38;;;;;;;5.15;1.25;;;;;;;17.59;100.00;98060.81;6082879;23;20013;-90
2022/11/10 08:18:14;;;;;;;6.95;1.38;;;;;;;17.84;100.00;98063.13;6059967;23;20019;-90
2022/11/10 08:20:40;;;;;;;7.90;1.27;;;;;;;17.47;100.00;98071.97;6084036;23;20034;-89
2022/11/10 08:23:06;;;;;;;8.65;1.23;;;;;;;17.70;100.00;98074.34;6085248;23;20002;-92
2022/11/10 08:25:34;;;;;;;6.53;1.35;;;;;;;17.50;100.00;98083.19;6060439;23;20017;-90
2022/11/10 08:28:10;;;;;;;4.68;1.30;;;;;;;17.52;100.00;98073.44;6070814;23;20733;-91
2022/11/10 08:30:38;;;;;;;5.50;1.23;;;;;;;17.87;100.00;98085.81;6082933;23;20006;-91
2022/11/10 08:33:05;;;;;;;5.95;0.98;;;;;;;18.20;100.00;98083.28;6081411;23;20003;-89
2022/11/10 08:35:34;;;;;;;6.35;1.15;;;;;;;18.08;100.00;98083.94;6082817;23;20011;-92
2022/11/10 08:38:26;;;;;;;6.47;1.08;;;;;;;18.33;100.00;98070.34;6084375;23;20061;-90
2022/11/10 08:40:55;;;;;;;8.05;1.40;;;;;;;18.30;100.00;98069.63;6053245;23;20014;-92
2022/11/10 08:43:20;;;;;;;8.98;1.52;;;;;;;18.10;100.00;98078.59;6087158;23;20044;-91
2022/11/10 08:45:46;;;;;;;6.88;1.50;;;;;;;17.86;100.00;98076.22;6083323;23;20070;-93
2022/11/10 08:48:13;;;;;;;6.07;1.38;;;;;;;17.90;100.00;98077.78;6062440;23;20006;-92
2022/11/10 08:50:40;;;;;;;8.18;1.40;;;;;;;18.17;100.00;98074.69;6086459;23;20011;-91
2022/11/10 08:53:10;;;;;;;6.07;1.30;;;;;;;18.00;100.00;98083.47;6085767;23;20006;-91
2022/11/10 08:55:35;;;;;;;7.72;1.70;;;;;;;17.90;100.00;98102.34;6085210;23;20026;-90
2022/11/10 08:58:03;;;;;;;9.00;1.60;;;;;;;18.23;100.00;98090.22;6060606;23;20014;-92
2022/11/10 09:00:31;;;;;;;8.00;1.70;;;;;;;18.45;100.00;98115.53;6060357;23;20025;-91
2022/11/10 09:03:03;;;;;;;10.55;1.60;;;;;;;18.00;100.00;98105.44;6086493;23;20018;-92
2022/11/10 09:05:28;;;;;;;8.13;1.42;;;;;;;17.90;100.00;98109.44;6059455;23;20029;-90
2022/11/10 09:07:54;;;;;;;4.47;1.23;;;;;;;17.83;100.00;98108.88;6084957;23;20392;-90
2022/11/10 09:10:19;;;;;;;6.72;1.63;;;;;;;17.58;100.00;98125.03;6061259;23;20479;-91
2022/11/10 09:12:45;;;;;;;6.47;1.20;;;;;;;17.73;100.00;98134.84;6061268;23;20391;-92
2022/11/10 09:15:11;;;;;;;7.60;1.10;;;;;;;17.60;100.00;98141.63;6060343;23;20014;-92
2022/11/10 09:17:38;;;;;;;7.55;1.50;;;;;;;17.68;100.00;98117.53;6086321;23;20177;-92
2022/11/10 09:20:05;;;;;;;7.32;1.50;;;;;;;17.60;100.00;98117.03;6063393;23;20081;-92
2022/11/10 09:22:31;;;;;;;6.00;1.35;;;;;;;17.80;100.00;98122.22;6092219;23;20016;-94
2022/11/10 09:24:56;;;;;;;9.32;1.67;;;;;;;17.84;100.00;98110.59;6091124;23;20002;-93
2022/11/10 09:27:25;;;;;;;5.80;1.45;;;;;;;17.97;100.00;98137.25;6066180;23;20006;-94
2022/11/10 09:29:50;;;;;;;5.60;1.50;;;;;;;17.47;100.00;98122.06;6066231;23;20007;-92
2022/11/10 09:32:15;;;;;;;6.35;1.30;;;;;;;18.10;100.00;98131.38;6067720;23;20014;-93
2022/11/10 09:34:42;;;;;;;9.65;1.63;;;;;;;17.58;100.00;98139.06;6068819;23;20109;-94
2022/11/10 09:37:07;;;;;;;7.57;1.38;;;;;;;17.65;100.00;98151.97;6068019;23;20105;-93
2022/11/10 09:39:33;;;;;;;9.10;1.70;;;;;;;17.92;100.00;98155.06;6068373;23;20034;-95
2022/11/10 09:41:58;;;;;;;7.15;1.92;;;;;;;17.96;100.00;98161.06;6091404;23;20015;-94
2022/11/10 09:44:29;;;;;;;8.85;1.70;;;;;;;17.63;100.00;98161.72;6068089;23;20451;-92
2022/11/10 09:47:03;;;;;;;9.13;1.65;;;;;;;17.80;100.00;98158.28;6092850;23;20013;-95
2022/11/10 09:49:32;;;;;;;7.70;1.23;;;;;;;17.90;100.00;98159.56;6065700;23;20017;-93
2022/11/10 09:51:59;;;;;;;7.18;1.40;;;;;;;18.06;100.00;98155.28;6092192;23;20460;-94
2022/11/10 09:54:31;;;;;;;6.28;1.20;;;;;;;18.35;100.00;98145.03;6065185;23;20349;-92
2022/11/10 09:56:59;;;;;;;6.75;1.02;;;;;;;18.17;100.00;98125.69;6065224;23;20064;-94
2022/11/10 09:59:33;;;;;;;5.18;1.20;;;;;;;18.16;100.00;98146.88;6093353;23;20018;-92
2022/11/10 10:02:03;;;;;;;4.78;1.15;;;;;;;18.56;100.00;98145.72;6088878;23;20006;-92
2022/11/10 10:04:50;;;;;;;6.55;1.15;;;;;;;18.23;100.00;98159.72;6063583;23;20031;-91
2022/11/10 10:07:23;;;;;;;5.82;1.45;;;;;;;18.41;100.00;98152.66;6062297;23;20022;-92
2022/11/10 10:10:16;;;;;;;7.38;1.38;;;;;;;18.32;100.00;98166.31;6062425;23;20808;-93
2022/11/10 10:12:42;;;;;;;5.88;1.30;;;;;;;17.96;100.00;98185.66;6084226;23;20024;-92
2022/11/10 10:15:10;;;;;;;4.05;0.80;;;;;;;18.05;100.00;98189.63;6063305;23;20340;-92
2022/11/10 10:17:41;;;;;;;4.82;1.10;;;;;;;18.51;100.00;98190.00;6089866;23;20077;-93
2022/11/10 10:20:22;;;;;;;4.22;0.90;;;;;;;18.43;100.00;98190.38;6064548;23;20018;-92
2022/11/10 10:23:09;;;;;;;5.47;1.08;;;;;;;18.58;100.00;98190.56;6088392;23;20033;-94
2022/11/10 10:25:38;;;;;;;4.07;0.88;;;;;;;18.43;100.00;98195.66;6062101;23;20373;-92
2022/11/10 10:28:32;;;;;;;7.72;1.00;;;;;;;18.11;100.00;98199.03;6063196;23;20027;-92
2022/11/10 10:31:18;;;;;;;;;;;;;;;18.31;100.00;98193.63;6086020;23;20101;-91
2022/11/10 10:33:45;;;;;;;4.72;0.98;;;;;;;18.48;100.00;98198.06;6061867;23;19909;-92
2022/11/10 10:36:18;;;;;;;4.38;0.88;;;;;;;18.77;100.00;98195.72;6061657;23;20093;-92
2022/11/10 10:38:47;;;;;;;5.53;1.02;;;;;;;18.74;100.00;98199.38;6086898;23;20057;-92
2022/11/10 10:41:16;;;;;;;4.47;0.70;;;;;;;19.33;100.00;98195.50;6061377;23;20093;-92
2022/11/10 10:43:46;;;;;;;3.50;0.70;;;;;;;19.04;100.00;98195.25;6086238;23;20026;-92
2022/11/10 10:46:14;;;;;;;5.40;1.38;;;;;;;18.19;100.00;98202.13;6085394;23;20026;-91
2022/11/10 10:48:40;;;;;;;3.33;0.60;;;;;;;19.19;100.00;98189.16;6084786;23;20121;-91
2022/11/10 10:51:06;;;;;;;2.28;0.55;;;;;;;18.79;100.00;98185.94;6062699;23;20006;-92
2022/11/10 10:53:44;;;;;;;4.25;0.65;;;;;;;18.64;100.00;98200.78;6087745;23;19998;-92
2022/11/10 10:56:20;;;;;;;4.38;0.73;;;;;;;18.60;100.00;98189.50;6061683;23;20015;-93
2022/11/10 10:58:52;;;;;;;4.47;0.80;;;;;;;18.65;100.00;98204.28;6085226;23;20042;-91
2022/11/10 11:01:27;;;;;;;4.97;0.70;;;;;;;18.81;100.00;98189.34;6087979;23;20180;-92
2022/11/10 11:03:52;;;;;;;1.52;0.45;;;;;;;19.16;100.00;98170.81;6087386;23;20320;-91
2022/11/10 11:06:24;;;;;;;3.60;0.75;;;;;;;18.77;100.00;98170.19;6088106;23;20516;-92
2022/11/10 11:09:00;;;;;;;2.33;0.57;;;;;;;18.99;100.00;98176.16;6088392;23;20010;-93
2022/11/10 11:11:32;;;;;;;4.78;0.73;;;;;;;19.01;100.00;98161.94;6063861;23;20053;-93
2022/11/10 11:14:24;;;;;;;5.55;0.73;;;;;;;18.83;100.00;98158.44;6063174;23;20022;-93
2022/11/10 11:16:54;;;;;;;2.90;0.60;;;;;;;18.93;100.00;98170.25;6063703;23;20006;-92
2022/11/10 11:19:26;;;;;;;3.47;0.65;;;;;;;18.43;100.00;98169.25;6085314;23;20022;-94
2022/11/10 11:22:31;;;;;;;2.05;0.60;;;;;;;19.47;100.00;98163.88;6089248;23;20042;-96
2022/11/10 11:25:31;;;;;;;3.75;0.60;;;;;;;18.95;100.00;98164.88;6068300;23;20022;-96
2022/11/10 11:28:31;;;;;;;2.03;0.50;;;;;;;19.47;100.00;98149.78;6069094;23;20014;-96
2022/11/10 11:32:01;;;;;;;2.60;0.40;;;;;;;18.50;100.00;98198.00;6071266;23;20014;-96
2022/11/10 11:35:14;;;;;;;3.95;0.68;;;;;;;18.93;100.00;98186.09;5952393;24;20325;-96
2022/11/10 11:37:51;;;;;;;4.43;0.75;;;;;;;19.06;100.00;98183.66;5941321;24;20008;-96
2022/11/10 11:41:02;;;;;;;2.38;0.40;;;;;;;18.81;100.00;98188.50;5951882;24;20054;-96
2022/11/10 11:44:18;;;;;;;0.98;0.30;;;;;;;19.19;100.00;98180.38;5950621;24;20029;-96